UAL1195 KOMA-KDEN
Flight info
| Callsign | UAL1195 |
|---|---|
| Flight time | N/A |
| Altitude | 32000 |
| Route | OBH BRWRY LAWGR4 |
| Aircraft | A320/M-VGDW/C |
Departure
| Time | 2026-05-08 00:49 |
|---|---|
| Airport | Eppley Airfield (KOMA) |
Arrival
| Time | N/A |
|---|---|
| Airport | Denver International Airport (KDEN) |
| Time | Latitude | Longitude | Altitude | Speed | Heading |
|---|---|---|---|---|---|
| 2026-05-08 00:44 | 41.30179 | -95.89906 | 985 ft | 0 kts | 162° |
| 2026-05-08 00:45 | 41.30191 | -95.89912 | 987 ft | 2 kts | 161° |
| 2026-05-08 00:45 | 41.30207 | -95.89920 | 987 ft | 2 kts | 158° |
| 2026-05-08 00:46 | 41.30222 | -95.89929 | 989 ft | 2 kts | 152° |
| 2026-05-08 00:46 | 41.30236 | -95.89941 | 987 ft | 2 kts | 133° |
| 2026-05-08 00:46 | 41.30241 | -95.89960 | 990 ft | 2 kts | 67° |
| 2026-05-08 00:46 | 41.30238 | -95.89969 | 987 ft | 0 kts | 54° |
| 2026-05-08 00:47 | 41.30271 | -95.89908 | 990 ft | 12 kts | 59° |
| 2026-05-08 00:47 | 41.30307 | -95.89786 | 986 ft | 15 kts | 103° |
| 2026-05-08 00:47 | 41.30171 | -95.89632 | 986 ft | 27 kts | 143° |
| 2026-05-08 00:47 | 41.30009 | -95.89480 | 987 ft | 30 kts | 146° |
| 2026-05-08 00:48 | 41.29844 | -95.89328 | 988 ft | 27 kts | 146° |
| 2026-05-08 00:48 | 41.29733 | -95.89176 | 990 ft | 19 kts | 90° |
| 2026-05-08 00:48 | 41.29812 | -95.89124 | 990 ft | 10 kts | 345° |
| 2026-05-08 00:48 | 41.30004 | -95.89295 | 987 ft | 71 kts | 324° |
| 2026-05-08 00:49 | 41.30608 | -95.89876 | 998 ft | 141 kts | 324° |
| 2026-05-08 00:49 | 41.31501 | -95.90713 | 1594 ft | 166 kts | 318° |
| 2026-05-08 00:49 | 41.32160 | -95.92216 | 1889 ft | 219 kts | 280° |
| 2026-05-08 00:49 | 41.32259 | -95.94324 | 2731 ft | 241 kts | 274° |
| 2026-05-08 00:50 | 41.32312 | -95.96658 | 3489 ft | 259 kts | 274° |
| 2026-05-08 00:50 | 41.32377 | -95.99032 | 4251 ft | 255 kts | 274° |
| 2026-05-08 00:50 | 41.32439 | -96.01382 | 5007 ft | 260 kts | 274° |
| 2026-05-08 00:50 | 41.32505 | -96.03776 | 5793 ft | 259 kts | 273° |
| 2026-05-08 00:51 | 41.32576 | -96.06196 | 6554 ft | 268 kts | 273° |
| 2026-05-08 00:51 | 41.32644 | -96.08759 | 7443 ft | 285 kts | 273° |
| 2026-05-08 00:51 | 41.32713 | -96.11472 | 8366 ft | 301 kts | 274° |
| 2026-05-08 00:51 | 41.32785 | -96.14328 | 9314 ft | 316 kts | 274° |
| 2026-05-08 00:52 | 41.32863 | -96.17319 | 10148 ft | 333 kts | 275° |
| 2026-05-08 00:52 | 41.32956 | -96.20486 | 10789 ft | 352 kts | 275° |
| 2026-05-08 00:52 | 41.33057 | -96.23777 | 11427 ft | 369 kts | 275° |
| 2026-05-08 00:52 | 41.33163 | -96.27264 | 12086 ft | 385 kts | 275° |
| 2026-05-08 00:53 | 41.33272 | -96.30888 | 12762 ft | 399 kts | 275° |
| 2026-05-08 00:53 | 41.33381 | -96.34634 | 13456 ft | 411 kts | 275° |
| 2026-05-08 00:53 | 41.33492 | -96.38487 | 14098 ft | 422 kts | 275° |
| 2026-05-08 00:53 | 41.33605 | -96.42432 | 14722 ft | 431 kts | 275° |
| 2026-05-08 00:54 | 41.33718 | -96.46458 | 15358 ft | 439 kts | 275° |
| 2026-05-08 00:54 | 41.33832 | -96.50550 | 16007 ft | 446 kts | 275° |
| 2026-05-08 00:54 | 41.33945 | -96.54649 | 16654 ft | 452 kts | 275° |
| 2026-05-08 00:54 | 41.34060 | -96.58854 | 17335 ft | 457 kts | 274° |
| 2026-05-08 00:55 | 41.34175 | -96.63100 | 18028 ft | 461 kts | 274° |
| 2026-05-08 00:55 | 41.34288 | -96.67382 | 18654 ft | 465 kts | 274° |
| 2026-05-08 00:55 | 41.34400 | -96.71695 | 19268 ft | 467 kts | 274° |
| 2026-05-08 00:55 | 41.34510 | -96.76028 | 19898 ft | 470 kts | 274° |
| 2026-05-08 00:56 | 41.34619 | -96.80375 | 20544 ft | 471 kts | 274° |
| 2026-05-08 00:56 | 41.34726 | -96.84680 | 21194 ft | 472 kts | 274° |
| 2026-05-08 00:56 | 41.34833 | -96.89048 | 21867 ft | 473 kts | 274° |
| 2026-05-08 00:56 | 41.34939 | -96.93414 | 22556 ft | 471 kts | 274° |
| 2026-05-08 00:57 | 41.35042 | -96.97758 | 23267 ft | 469 kts | 275° |
| 2026-05-08 00:57 | 41.35144 | -97.02083 | 23895 ft | 466 kts | 275° |
| 2026-05-08 00:57 | 41.35245 | -97.06384 | 24507 ft | 464 kts | 274° |
| 2026-05-08 00:57 | 41.35345 | -97.10666 | 25129 ft | 461 kts | 274° |
| 2026-05-08 00:58 | 41.35443 | -97.14916 | 25764 ft | 459 kts | 274° |
| 2026-05-08 00:58 | 41.35538 | -97.19095 | 26406 ft | 456 kts | 274° |
| 2026-05-08 00:58 | 41.35632 | -97.23307 | 27070 ft | 454 kts | 274° |
| 2026-05-08 00:58 | 41.35725 | -97.27498 | 27756 ft | 451 kts | 274° |
| 2026-05-08 00:59 | 41.35816 | -97.31660 | 28454 ft | 449 kts | 274° |
| 2026-05-08 00:59 | 41.35906 | -97.35795 | 29173 ft | 445 kts | 274° |
| 2026-05-08 00:59 | 41.35995 | -97.39898 | 29910 ft | 442 kts | 274° |
| 2026-05-08 00:59 | 41.36082 | -97.43968 | 30551 ft | 438 kts | 274° |
| 2026-05-08 01:00 | 41.36165 | -97.48003 | 31199 ft | 434 kts | 274° |
| 2026-05-08 01:00 | 41.36245 | -97.52018 | 31586 ft | 436 kts | 274° |
| 2026-05-08 01:00 | 41.36323 | -97.56023 | 31766 ft | 442 kts | 274° |
| 2026-05-08 01:01 | 41.36479 | -97.64218 | 31860 ft | 443 kts | 274° |
| 2026-05-08 01:01 | 41.36625 | -97.72421 | 31877 ft | 443 kts | 273° |
| 2026-05-08 01:02 | 41.36762 | -97.80623 | 31883 ft | 444 kts | 273° |
| 2026-05-08 01:02 | 41.36898 | -97.88840 | 31879 ft | 444 kts | 273° |
| 2026-05-08 01:03 | 41.37027 | -97.97006 | 31883 ft | 445 kts | 273° |
| 2026-05-08 01:03 | 41.37153 | -98.05234 | 31881 ft | 445 kts | 273° |
| 2026-05-08 01:04 | 41.37265 | -98.12974 | 31884 ft | 445 kts | 273° |
| 2026-05-08 01:04 | 41.37380 | -98.21219 | 31886 ft | 446 kts | 272° |
| 2026-05-08 01:05 | 41.37489 | -98.29425 | 31883 ft | 446 kts | 272° |
| 2026-05-08 01:05 | 41.37016 | -98.37665 | 31891 ft | 452 kts | 259° |
| 2026-05-08 01:06 | 41.35207 | -98.45704 | 31883 ft | 455 kts | 255° |
| 2026-05-08 01:06 | 41.33212 | -98.53701 | 31880 ft | 456 kts | 255° |
| 2026-05-08 01:07 | 41.31200 | -98.61643 | 31877 ft | 456 kts | 255° |
| 2026-05-08 01:07 | 41.29181 | -98.69645 | 31879 ft | 457 kts | 255° |
| 2026-05-08 01:08 | 41.27164 | -98.77663 | 31878 ft | 457 kts | 255° |
| 2026-05-08 01:08 | 41.25151 | -98.85678 | 31871 ft | 458 kts | 255° |
| 2026-05-08 01:09 | 41.23147 | -98.93661 | 31871 ft | 458 kts | 255° |